Time;durP1;ratioP1;P1;durP2;ratioP2;P2;SDS_P1;SDS_P2;PMS_P1;PMS_P2;Temp;Humidity;BMP_temperature;BMP_pressure;BME280_temperature;BME280_humidity;BME280_pressure;Samples;Min_cycle;Max_cycle;Signal;HPM_P1;HPM_P2
2023/12/29 00:01:33;;;;;;;23.02;8.95;;;8.30;99.90;;;;;;5124462;28;20033;-51
2023/12/29 00:03:59;;;;;;;36.83;9.40;;;8.40;99.90;;;;;;5125286;28;20039;-51
2023/12/29 00:06:24;;;;;;;36.40;8.60;;;8.30;99.90;;;;;;5125111;28;20430;-51
2023/12/29 00:08:50;;;;;;;20.50;8.57;;;8.30;99.90;;;;;;5108154;28;20080;-51
2023/12/29 00:11:22;;;;;;;26.52;8.57;;;8.40;99.90;;;;;;5095518;28;20025;-50
2023/12/29 00:13:47;;;;;;;28.92;8.38;;;8.40;99.90;;;;;;5104425;28;20033;-51
2023/12/29 00:16:14;;;;;;;25.98;7.65;;;8.40;99.90;;;;;;5071134;28;20428;-51
2023/12/29 00:18:39;;;;;;;25.88;8.80;;;8.30;99.90;;;;;;5070745;28;20119;-51
2023/12/29 00:21:05;;;;;;;26.17;8.98;;;8.30;99.90;;;;;;5108622;28;20028;-51
2023/12/29 00:23:31;;;;;;;21.45;8.45;;;8.40;99.90;;;;;;5109103;28;20053;-51
2023/12/29 00:25:56;;;;;;;22.90;8.38;;;8.30;99.90;;;;;;5124899;28;20024;-51
2023/12/29 00:28:22;;;;;;;26.65;6.97;;;8.30;99.90;;;;;;5106857;28;20020;-51
2023/12/29 00:30:48;;;;;;;25.42;8.30;;;8.40;99.90;;;;;;5124876;28;20487;-51
2023/12/29 00:33:13;;;;;;;23.45;7.32;;;8.40;99.90;;;;;;5107212;28;20036;-50
2023/12/29 00:35:39;;;;;;;21.05;8.10;;;8.30;99.90;;;;;;5108735;28;20039;-50
2023/12/29 00:38:05;;;;;;;17.70;7.15;;;8.30;99.90;;;;;;5106687;28;20039;-48
2023/12/29 00:40:31;;;;;;;20.75;7.45;;;8.40;99.90;;;;;;5108588;28;20035;-49
2023/12/29 00:42:57;;;;;;;24.65;8.73;;;8.40;99.90;;;;;;5124380;28;20257;-48
2023/12/29 00:45:22;;;;;;;19.45;7.18;;;8.40;99.90;;;;;;5108628;28;20020;-48
2023/12/29 00:47:50;;;;;;;18.15;7.38;;;8.30;99.90;;;;;;5094923;28;20050;-51
2023/12/29 00:50:16;;;;;;;26.15;8.02;;;8.30;99.90;;;;;;5088298;28;20464;-51
2023/12/29 00:52:41;;;;;;;16.38;6.63;;;8.40;99.90;;;;;;5070278;28;20035;-51
2023/12/29 00:55:07;;;;;;;17.05;6.93;;;8.30;99.90;;;;;;5070211;28;20059;-51
2023/12/29 00:57:33;;;;;;;20.90;7.22;;;8.30;99.90;;;;;;5107002;28;20035;-51
2023/12/29 01:00:00;;;;;;;20.38;7.40;;;8.30;99.90;;;;;;5090148;28;20031;-50
2023/12/29 01:02:25;;;;;;;25.75;7.78;;;8.40;99.90;;;;;;5108368;28;20076;-49
2023/12/29 01:04:51;;;;;;;21.17;6.55;;;8.40;99.90;;;;;;5104263;28;20059;-49
2023/12/29 01:07:16;;;;;;;21.40;6.68;;;8.40;99.90;;;;;;5070205;28;20020;-49
2023/12/29 01:09:42;;;;;;;18.83;7.28;;;8.30;99.90;;;;;;5069945;28;20037;-48
2023/12/29 01:12:08;;;;;;;20.20;7.18;;;8.40;99.90;;;;;;5088216;28;20036;-49
2023/12/29 01:14:33;;;;;;;21.33;6.90;;;8.30;99.90;;;;;;5078887;28;20035;-49
2023/12/29 01:16:59;;;;;;;24.75;7.18;;;8.40;99.90;;;;;;5123836;28;20075;-51
2023/12/29 01:19:24;;;;;;;19.75;7.30;;;8.40;99.90;;;;;;5107821;28;20055;-50
2023/12/29 01:21:53;;;;;;;14.57;5.95;;;8.40;99.90;;;;;;5108012;28;20024;-49
2023/12/29 01:24:18;;;;;;;18.83;7.18;;;8.40;99.90;;;;;;5107374;28;20032;-49
2023/12/29 01:26:44;;;;;;;18.00;6.80;;;8.40;99.90;;;;;;5123771;28;20016;-51
2023/12/29 01:29:09;;;;;;;16.80;6.45;;;8.40;99.90;;;;;;5107797;28;20059;-49
2023/12/29 01:31:35;;;;;;;15.50;7.20;;;8.40;99.90;;;;;;5089746;28;20032;-51
2023/12/29 01:34:00;;;;;;;19.98;7.20;;;8.40;99.90;;;;;;5123808;28;20028;-52
2023/12/29 01:36:26;;;;;;;14.20;6.22;;;8.40;99.90;;;;;;5123377;28;20032;-48
2023/12/29 01:38:52;;;;;;;12.68;6.40;;;8.40;99.90;;;;;;5109991;28;20035;-49
2023/12/29 01:41:20;;;;;;;12.63;5.70;;;8.40;99.90;;;;;;5122501;28;20050;-48
2023/12/29 01:44:21;;;;;;;22.13;6.68;;;8.40;99.90;;;;;;5105127;28;20032;-49
2023/12/29 01:46:47;;;;;;;17.48;6.75;;;8.40;99.90;;;;;;5104371;28;20037;-48
2023/12/29 01:49:17;;;;;;;17.77;6.50;;;8.40;99.90;;;;;;5123003;28;20082;-49
2023/12/29 01:51:43;;;;;;;10.65;5.57;;;8.40;99.90;;;;;;5104870;28;20386;-49
2023/12/29 01:54:09;;;;;;;17.27;6.97;;;8.40;99.90;;;;;;5105925;28;20064;-48
2023/12/29 01:56:34;;;;;;;16.98;6.22;;;8.40;99.90;;;;;;5088846;28;20028;-49
2023/12/29 01:59:00;;;;;;;20.02;6.88;;;8.40;99.90;;;;;;5105306;28;20485;-49
2023/12/29 02:01:25;;;;;;;20.20;6.70;;;8.40;99.90;;;;;;5105738;28;20054;-49
2023/12/29 02:03:51;;;;;;;24.27;6.68;;;8.40;99.90;;;;;;5122795;28;20098;-49
2023/12/29 02:06:16;;;;;;;18.92;6.05;;;8.40;99.90;;;;;;5122905;28;20060;-48
2023/12/29 02:08:42;;;;;;;14.75;6.03;;;8.40;99.90;;;;;;5121970;28;20016;-49
2023/12/29 02:11:07;;;;;;;11.73;5.43;;;8.40;99.90;;;;;;5105847;28;20379;-48
2023/12/29 02:13:33;;;;;;;15.13;6.18;;;8.40;99.90;;;;;;5105719;28;20174;-49
2023/12/29 02:16:07;;;;;;;16.77;6.05;;;8.40;99.90;;;;;;5122738;28;20020;-49
2023/12/29 02:18:33;;;;;;;11.00;5.40;;;8.40;99.90;;;;;;5109407;28;20043;-49
2023/12/29 02:20:59;;;;;;;16.45;6.03;;;8.40;99.90;;;;;;5085379;28;20035;-49
2023/12/29 02:23:24;;;;;;;12.88;5.93;;;8.40;99.90;;;;;;5068400;28;20029;-49
2023/12/29 02:25:51;;;;;;;13.77;6.28;;;8.40;99.90;;;;;;5068588;28;20490;-49
2023/12/29 02:28:22;;;;;;;16.63;6.25;;;8.40;99.90;;;;;;5103272;28;20039;-49
2023/12/29 02:31:03;;;;;;;10.85;5.30;;;8.40;99.90;;;;;;5105083;28;20070;-49
2023/12/29 02:33:29;;;;;;;12.52;5.38;;;8.50;99.90;;;;;;5103809;28;20036;-48
2023/12/29 02:35:56;;;;;;;15.18;6.07;;;8.50;99.90;;;;;;5098780;28;20048;-47
2023/12/29 02:38:22;;;;;;;17.17;5.22;;;8.50;99.90;;;;;;5085214;28;20039;-49
2023/12/29 02:40:48;;;;;;;12.32;5.40;;;8.50;99.90;;;;;;5068384;28;20029;-48
2023/12/29 02:43:13;;;;;;;10.20;5.05;;;8.50;99.90;;;;;;5084995;28;20029;-49
2023/12/29 02:45:39;;;;;;;7.45;4.43;;;8.50;99.90;;;;;;5097912;28;20061;-49
2023/12/29 02:48:05;;;;;;;8.30;5.03;;;8.50;99.90;;;;;;5122281;28;20028;-49
2023/12/29 02:50:30;;;;;;;11.20;4.88;;;8.50;99.90;;;;;;5106479;28;20040;-51
2023/12/29 02:52:56;;;;;;;14.27;5.22;;;8.50;99.90;;;;;;5122056;28;20052;-49
2023/12/29 02:55:21;;;;;;;9.88;5.03;;;8.50;99.90;;;;;;5121082;28;20024;-49
2023/12/29 02:57:48;;;;;;;10.55;5.20;;;8.50;99.90;;;;;;5122172;28;20042;-48
2023/12/29 03:00:14;;;;;;;13.30;5.32;;;8.50;99.90;;;;;;5106367;28;20044;-48
2023/12/29 03:02:39;;;;;;;11.35;5.38;;;8.50;99.90;;;;;;5104147;28;20025;-49
2023/12/29 03:05:05;;;;;;;12.13;4.82;;;8.50;99.90;;;;;;5122174;28;20158;-49
2023/12/29 03:07:31;;;;;;;12.27;4.50;;;8.50;99.90;;;;;;5104952;28;20027;-49
2023/12/29 03:09:57;;;;;;;11.60;4.88;;;8.50;99.90;;;;;;5106101;28;20647;-49
2023/12/29 03:12:22;;;;;;;13.18;4.72;;;8.50;99.90;;;;;;5105757;28;20038;-49
2023/12/29 03:14:48;;;;;;;7.35;4.75;;;8.50;99.90;;;;;;5106421;28;20052;-49
2023/12/29 03:17:13;;;;;;;7.70;4.22;;;8.50;99.90;;;;;;5088241;28;20096;-49
2023/12/29 03:19:39;;;;;;;9.10;4.45;;;8.50;99.90;;;;;;5104783;28;20028;-48
2023/12/29 03:22:05;;;;;;;11.55;4.47;;;8.50;99.90;;;;;;5087260;28;20039;-48
2023/12/29 03:24:30;;;;;;;10.30;4.32;;;8.60;99.90;;;;;;5121793;28;20036;-49
2023/12/29 03:26:56;;;;;;;9.70;4.25;;;8.50;99.90;;;;;;5106688;28;20020;-48
2023/12/29 03:29:21;;;;;;;11.75;4.85;;;8.60;99.90;;;;;;5106456;28;20476;-49
2023/12/29 03:31:47;;;;;;;8.27;4.30;;;8.60;99.90;;;;;;5121165;28;20564;-49
2023/12/29 03:34:13;;;;;;;8.50;4.05;;;8.60;99.90;;;;;;5121657;28;20036;-49
2023/12/29 03:36:38;;;;;;;11.90;4.55;;;8.60;99.90;;;;;;5106256;28;20028;-49
2023/12/29 03:39:04;;;;;;;9.35;3.97;;;8.60;99.90;;;;;;5105281;28;20032;-49
2023/12/29 03:41:30;;;;;;;10.10;4.57;;;8.60;99.90;;;;;;5121728;28;20028;-48
2023/12/29 03:43:56;;;;;;;9.60;4.53;;;8.60;99.90;;;;;;5121596;28;20032;-48
2023/12/29 03:46:22;;;;;;;11.43;4.78;;;8.60;99.90;;;;;;5106058;28;20089;-48
2023/12/29 03:48:47;;;;;;;7.80;4.10;;;8.60;99.90;;;;;;5121065;28;20032;-49
2023/12/29 03:51:13;;;;;;;8.50;4.65;;;8.60;99.90;;;;;;5105896;28;20020;-48
2023/12/29 03:53:39;;;;;;;6.60;4.20;;;8.60;99.90;;;;;;5106042;28;20103;-49
2023/12/29 03:56:08;;;;;;;10.10;4.47;;;8.60;99.90;;;;;;5121546;28;20035;-48
2023/12/29 03:58:35;;;;;;;9.65;4.28;;;8.60;99.90;;;;;;5121506;28;20116;-48
2023/12/29 04:01:01;;;;;;;10.18;4.55;;;8.60;99.90;;;;;;5104299;28;20078;-49
2023/12/29 04:03:26;;;;;;;9.27;4.03;;;8.60;99.90;;;;;;5105827;28;20472;-49
2023/12/29 04:05:52;;;;;;;8.77;4.43;;;8.60;99.90;;;;;;5104251;28;20047;-49
2023/12/29 04:08:17;;;;;;;8.50;4.65;;;8.60;99.90;;;;;;5124130;28;20028;-48
2023/12/29 04:10:43;;;;;;;5.70;3.63;;;8.60;99.90;;;;;;5124445;28;20032;-48
2023/12/29 04:13:08;;;;;;;8.55;3.80;;;8.60;99.90;;;;;;5109053;28;20033;-49
2023/12/29 04:15:34;;;;;;;9.13;3.47;;;8.70;99.90;;;;;;5125908;28;20092;-49
2023/12/29 04:17:59;;;;;;;7.63;3.70;;;8.60;99.90;;;;;;5109202;28;20081;-49
2023/12/29 04:20:25;;;;;;;9.02;4.15;;;8.60;99.90;;;;;;5109095;28;20051;-49
2023/12/29 04:22:51;;;;;;;7.35;4.10;;;8.60;99.90;;;;;;5124680;28;20062;-49
2023/12/29 04:25:16;;;;;;;10.23;4.18;;;8.70;99.90;;;;;;5109219;28;20074;-49
2023/12/29 04:27:42;;;;;;;7.30;4.20;;;8.70;99.90;;;;;;5124825;28;20035;-49
2023/12/29 04:30:08;;;;;;;8.52;4.10;;;8.60;99.90;;;;;;5108933;28;20024;-50
2023/12/29 04:32:33;;;;;;;7.18;4.03;;;8.60;99.90;;;;;;5090827;28;20032;-48
2023/12/29 04:34:59;;;;;;;6.95;4.10;;;8.70;99.90;;;;;;5124548;28;20059;-49
2023/12/29 04:37:24;;;;;;;9.23;4.15;;;8.60;99.90;;;;;;5124673;28;20489;-49
2023/12/29 04:39:50;;;;;;;5.97;3.65;;;8.70;99.90;;;;;;5107276;28;20028;-48
2023/12/29 04:42:17;;;;;;;8.63;4.47;;;8.70;99.90;;;;;;5108820;28;20039;-51
2023/12/29 04:44:43;;;;;;;11.90;4.05;;;8.70;99.90;;;;;;5108786;28;20055;-51
2023/12/29 04:47:09;;;;;;;8.70;4.30;;;8.70;99.90;;;;;;5124594;28;20016;-49
2023/12/29 04:49:34;;;;;;;6.55;3.95;;;8.70;99.90;;;;;;5090659;28;20028;-49
2023/12/29 04:52:00;;;;;;;8.63;3.85;;;8.70;99.90;;;;;;5124343;28;20059;-51
2023/12/29 04:54:25;;;;;;;7.38;3.88;;;8.70;99.90;;;;;;5124451;28;20476;-51
2023/12/29 04:56:51;;;;;;;10.15;4.10;;;8.70;99.90;;;;;;5090343;28;20035;-51
2023/12/29 04:59:17;;;;;;;6.70;3.80;;;8.70;99.90;;;;;;5124060;28;20475;-50
2023/12/29 05:01:42;;;;;;;6.53;3.53;;;8.70;99.90;;;;;;5090048;28;20024;-50
2023/12/29 05:04:08;;;;;;;10.48;4.13;;;8.70;99.90;;;;;;5107270;28;20056;-50
2023/12/29 05:06:33;;;;;;;4.80;3.55;;;8.70;99.90;;;;;;5108447;28;20166;-51
2023/12/29 05:08:59;;;;;;;7.60;3.78;;;8.70;99.90;;;;;;5123908;28;20028;-51
2023/12/29 05:11:25;;;;;;;8.77;3.75;;;8.70;99.90;;;;;;5108054;28;20057;-49
2023/12/29 05:13:50;;;;;;;7.55;3.70;;;8.70;99.90;;;;;;5123723;28;20032;-49
2023/12/29 05:16:16;;;;;;;7.15;4.20;;;8.70;99.90;;;;;;5106775;28;20087;-51
2023/12/29 05:18:41;;;;;;;11.98;4.20;;;8.70;99.90;;;;;;5088983;28;20392;-50
2023/12/29 05:21:17;;;;;;;6.07;3.80;;;8.70;99.90;;;;;;5108923;28;20077;-51
2023/12/29 05:23:47;;;;;;;;;;;8.70;99.90;;;;;;5124215;28;20028;-51
2023/12/29 05:26:12;;;;;;;11.02;3.75;;;8.70;99.90;;;;;;5123609;28;20375;-51
2023/12/29 05:28:38;;;;;;;7.28;3.55;;;8.70;99.90;;;;;;5107893;28;20053;-51
2023/12/29 05:31:04;;;;;;;8.75;3.75;;;8.70;99.90;;;;;;5106721;28;20402;-51
2023/12/29 05:33:30;;;;;;;9.85;4.05;;;8.70;99.90;;;;;;5107735;28;20063;-51
2023/12/29 05:35:56;;;;;;;6.40;3.67;;;8.70;99.90;;;;;;5089466;28;20032;-51
2023/12/29 05:38:22;;;;;;;6.65;3.55;;;8.70;99.90;;;;;;5107484;28;20043;-51
2023/12/29 05:40:48;;;;;;;7.43;3.90;;;8.70;99.90;;;;;;5107456;28;20028;-51
2023/12/29 05:43:14;;;;;;;6.65;3.17;;;8.70;99.90;;;;;;5123135;28;20036;-51
2023/12/29 05:45:40;;;;;;;9.32;3.50;;;8.70;99.90;;;;;;5107593;28;20221;-51
2023/12/29 05:48:06;;;;;;;9.07;4.10;;;8.70;99.90;;;;;;5107507;28;20434;-51
2023/12/29 05:50:32;;;;;;;7.18;3.83;;;8.70;99.90;;;;;;5106148;28;20032;-50
2023/12/29 05:52:57;;;;;;;5.70;3.30;;;8.70;99.90;;;;;;5107140;28;20028;-51
2023/12/29 05:55:23;;;;;;;7.78;3.50;;;8.70;99.90;;;;;;5123080;28;20476;-51
2023/12/29 05:57:49;;;;;;;8.50;3.80;;;8.70;99.90;;;;;;5105968;28;20040;-51
2023/12/29 06:00:15;;;;;;;5.95;3.60;;;8.70;99.90;;;;;;5123180;28;20028;-51
2023/12/29 06:02:43;;;;;;;7.55;3.70;;;8.70;99.90;;;;;;5107205;28;20017;-50
2023/12/29 06:05:12;;;;;;;13.68;3.95;;;8.70;99.90;;;;;;5122785;28;20047;-51
2023/12/29 06:07:38;;;;;;;7.57;3.42;;;8.70;99.90;;;;;;5122888;28;20384;-51
2023/12/29 06:10:04;;;;;;;10.30;3.67;;;8.70;99.90;;;;;;5122956;28;20016;-51
2023/12/29 06:12:30;;;;;;;5.75;3.42;;;8.70;99.90;;;;;;5105527;28;20052;-51
2023/12/29 06:14:55;;;;;;;5.07;3.40;;;8.70;99.90;;;;;;5122605;28;20020;-51
2023/12/29 06:17:21;;;;;;;7.15;4.10;;;8.70;99.90;;;;;;5122739;28;20021;-51
2023/12/29 06:19:46;;;;;;;5.60;3.60;;;8.70;99.90;;;;;;5106777;28;20031;-51
2023/12/29 06:22:14;;;;;;;6.28;3.33;;;8.70;99.90;;;;;;5122676;28;20031;-51
2023/12/29 06:24:42;;;;;;;5.75;3.50;;;8.70;99.90;;;;;;5105220;28;20064;-51
2023/12/29 06:27:08;;;;;;;5.30;3.20;;;8.70;99.90;;;;;;5122229;28;20020;-51
2023/12/29 06:29:34;;;;;;;7.72;3.72;;;8.70;99.90;;;;;;5106342;28;20024;-51
2023/12/29 06:31:59;;;;;;;5.28;3.65;;;8.70;99.90;;;;;;5105447;28;20020;-51
2023/12/29 06:34:25;;;;;;;6.85;3.58;;;8.70;99.90;;;;;;5106394;28;20040;-51
2023/12/29 06:36:51;;;;;;;8.50;3.47;;;8.70;99.90;;;;;;5112311;28;20510;-51
2023/12/29 06:39:16;;;;;;;6.65;3.30;;;8.70;99.90;;;;;;5106463;28;20106;-50
2023/12/29 06:41:42;;;;;;;5.50;3.60;;;8.70;99.90;;;;;;5106501;28;20027;-51
2023/12/29 06:44:07;;;;;;;5.85;3.40;;;8.70;99.90;;;;;;5106671;28;20036;-50
2023/12/29 06:46:33;;;;;;;5.93;3.65;;;8.70;99.90;;;;;;5107942;28;20053;-51
2023/12/29 06:48:59;;;;;;;6.70;3.58;;;8.70;99.90;;;;;;5126873;28;20083;-51
2023/12/29 06:51:24;;;;;;;7.32;3.40;;;8.70;99.90;;;;;;5126890;28;20083;-51
2023/12/29 06:53:50;;;;;;;7.88;3.80;;;8.70;99.90;;;;;;5106834;28;20096;-51
2023/12/29 06:56:16;;;;;;;4.80;3.25;;;8.70;99.90;;;;;;5108711;28;20032;-51
2023/12/29 06:58:42;;;;;;;6.28;3.53;;;8.70;99.90;;;;;;5097975;28;20039;-51
2023/12/29 07:01:07;;;;;;;6.55;3.35;;;8.70;99.90;;;;;;5108521;28;20025;-51
2023/12/29 07:03:33;;;;;;;4.93;3.15;;;8.70;99.90;;;;;;5088515;28;20131;-50
2023/12/29 07:06:02;;;;;;;5.78;3.13;;;8.70;99.90;;;;;;5095265;28;20023;-49
2023/12/29 07:08:28;;;;;;;7.50;3.17;;;8.70;99.90;;;;;;5117098;28;20033;-51
2023/12/29 07:10:53;;;;;;;7.07;3.58;;;8.70;99.90;;;;;;5106400;28;20028;-51
2023/12/29 07:13:22;;;;;;;9.32;3.28;;;8.80;99.90;;;;;;5115635;28;20036;-49
2023/12/29 07:15:50;;;;;;;4.63;3.53;;;8.70;99.90;;;;;;5091840;28;20090;-48
2023/12/29 07:18:16;;;;;;;5.78;3.28;;;8.70;99.90;;;;;;5103724;28;20035;-49
2023/12/29 07:20:42;;;;;;;4.80;3.17;;;8.80;99.90;;;;;;5104086;28;20020;-49
2023/12/29 07:23:08;;;;;;;4.70;3.00;;;8.80;99.90;;;;;;5121314;28;20036;-49
2023/12/29 07:25:33;;;;;;;4.35;2.92;;;8.80;99.90;;;;;;5120071;28;20046;-49
2023/12/29 07:27:59;;;;;;;6.10;2.95;;;8.80;99.90;;;;;;5121803;28;20021;-49
2023/12/29 07:30:25;;;;;;;5.07;3.10;;;8.80;99.90;;;;;;5106101;28;20025;-49
2023/12/29 07:32:51;;;;;;;6.72;2.97;;;8.80;99.90;;;;;;5106019;28;20033;-49
2023/12/29 07:35:17;;;;;;;6.53;2.90;;;8.80;99.90;;;;;;5113454;28;20028;-48
2023/12/29 07:37:43;;;;;;;6.00;2.75;;;8.80;99.90;;;;;;5104399;28;20035;-49
2023/12/29 07:40:11;;;;;;;4.75;3.38;;;8.90;99.90;;;;;;5125928;28;20038;-49
2023/12/29 07:42:37;;;;;;;5.78;3.60;;;8.90;99.90;;;;;;5129840;28;20023;-49
2023/12/29 07:45:02;;;;;;;4.38;3.03;;;8.90;99.90;;;;;;5118593;28;20054;-49
2023/12/29 07:47:28;;;;;;;4.22;2.75;;;9.00;99.90;;;;;;5090942;28;20460;-49
2023/12/29 07:49:53;;;;;;;6.00;2.78;;;9.00;99.90;;;;;;5125419;28;20384;-49
2023/12/29 07:52:19;;;;;;;4.10;2.88;;;9.00;99.90;;;;;;5118574;28;20079;-49
2023/12/29 07:54:45;;;;;;;7.70;2.72;;;9.00;99.90;;;;;;5128675;28;20042;-49
2023/12/29 07:57:10;;;;;;;3.53;2.92;;;9.00;99.90;;;;;;5119208;28;20036;-49
2023/12/29 07:59:36;;;;;;;5.05;2.88;;;9.00;99.90;;;;;;5137319;27;20036;-49
2023/12/29 08:02:01;;;;;;;6.95;2.80;;;9.00;99.90;;;;;;5111836;28;20042;-49
2023/12/29 08:04:27;;;;;;;4.47;2.58;;;9.10;99.90;;;;;;5121728;28;20027;-49
2023/12/29 08:06:52;;;;;;;6.13;2.78;;;9.10;99.90;;;;;;5126095;27;20027;-49
2023/12/29 08:09:19;;;;;;;4.95;2.72;;;9.10;99.90;;;;;;5109930;28;20042;-49
2023/12/29 08:11:45;;;;;;;3.42;2.92;;;9.10;99.90;;;;;;5109223;28;20035;-49
2023/12/29 08:14:11;;;;;;;3.10;2.65;;;9.10;99.90;;;;;;5129768;28;20040;-49
2023/12/29 08:16:42;;;;;;;7.45;2.95;;;9.10;99.90;;;;;;5111335;28;20030;-49
2023/12/29 08:19:08;;;;;;;4.93;2.58;;;9.10;99.90;;;;;;5093003;28;20031;-49
2023/12/29 08:21:34;;;;;;;3.85;2.38;;;9.20;99.90;;;;;;5129294;28;20016;-49
2023/12/29 08:23:59;;;;;;;3.85;2.55;;;9.20;99.90;;;;;;5111383;28;20024;-49
2023/12/29 08:26:25;;;;;;;3.53;2.17;;;9.20;99.90;;;;;;5112100;28;20048;-49
2023/12/29 08:28:51;;;;;;;5.32;2.28;;;9.20;99.90;;;;;;5113007;28;20037;-48
2023/12/29 08:31:18;;;;;;;3.38;2.45;;;9.20;99.90;;;;;;5111012;28;20394;-49
2023/12/29 08:33:43;;;;;;;2.35;2.13;;;9.20;99.90;;;;;;5107340;28;20032;-49
2023/12/29 08:36:11;;;;;;;3.60;2.60;;;9.30;99.90;;;;;;5108632;28;20111;-49
2023/12/29 08:38:37;;;;;;;4.95;2.50;;;9.30;99.90;;;;;;5118027;28;20028;-49
2023/12/29 08:41:03;;;;;;;3.13;2.30;;;9.30;99.90;;;;;;5113152;28;20040;-49
2023/12/29 08:43:28;;;;;;;3.17;2.25;;;9.30;99.90;;;;;;5101818;28;20024;-49
2023/12/29 08:45:54;;;;;;;3.28;2.20;;;9.30;99.90;;;;;;5135526;27;20485;-48
2023/12/29 08:48:20;;;;;;;3.95;2.33;;;9.30;99.90;;;;;;5103019;28;20043;-49
2023/12/29 08:50:45;;;;;;;2.40;2.08;;;9.30;99.90;;;;;;5109383;28;20073;-49
2023/12/29 08:53:11;;;;;;;3.47;2.25;;;9.30;99.90;;;;;;5113272;28;20032;-49
2023/12/29 08:55:36;;;;;;;2.60;2.08;;;9.30;99.90;;;;;;5121001;28;20024;-49
2023/12/29 08:58:02;;;;;;;5.10;2.28;;;9.40;99.90;;;;;;5105335;28;20053;-49
2023/12/29 09:00:30;;;;;;;3.13;2.58;;;9.30;99.90;;;;;;5104791;28;20043;-50
2023/12/29 09:02:56;;;;;;;3.33;2.30;;;9.40;99.90;;;;;;5089457;28;20070;-51
2023/12/29 09:05:22;;;;;;;2.58;2.17;;;9.40;99.90;;;;;;5097938;28;20046;-51
2023/12/29 09:07:47;;;;;;;3.65;2.20;;;9.30;99.90;;;;;;5107662;28;20102;-49
2023/12/29 09:10:14;;;;;;;4.95;2.40;;;9.40;99.90;;;;;;5089028;28;20485;-49
2023/12/29 09:12:40;;;;;;;2.47;2.25;;;9.40;99.90;;;;;;5104163;28;20126;-49
2023/12/29 09:15:06;;;;;;;2.45;2.25;;;9.40;99.90;;;;;;5128515;28;20028;-49
2023/12/29 09:17:32;;;;;;;3.42;2.40;;;9.40;99.90;;;;;;5105632;28;20024;-49
2023/12/29 09:19:57;;;;;;;3.28;2.10;;;9.40;99.90;;;;;;5107501;28;20038;-50
2023/12/29 09:22:23;;;;;;;2.58;2.25;;;9.40;99.90;;;;;;5120690;28;20099;-51
2023/12/29 09:24:48;;;;;;;2.83;1.90;;;9.40;99.90;;;;;;5117473;28;20051;-51
2023/12/29 09:27:14;;;;;;;2.97;2.13;;;9.40;99.90;;;;;;5123264;28;20020;-50
2023/12/29 09:29:40;;;;;;;3.50;2.30;;;9.50;99.90;;;;;;5107454;28;20055;-50
2023/12/29 09:32:06;;;;;;;6.00;2.72;;;9.50;99.90;;;;;;5099715;28;20380;-51
2023/12/29 09:34:31;;;;;;;7.28;2.45;;;9.50;99.90;;;;;;5102013;28;20028;-51
2023/12/29 09:36:57;;;;;;;3.63;2.58;;;9.50;99.90;;;;;;5123968;28;20045;-51
2023/12/29 09:39:23;;;;;;;5.70;3.05;;;9.50;99.90;;;;;;5083735;28;20039;-51
2023/12/29 09:41:51;;;;;;;11.02;2.83;;;9.50;99.90;;;;;;5104071;28;20024;-50
2023/12/29 09:44:16;;;;;;;99.18;8.73;;;9.50;99.90;;;;;;5108283;28;20145;-51
2023/12/29 09:46:43;;;;;;;100.90;9.90;;;9.50;99.90;;;;;;5098825;28;20518;-51
2023/12/29 09:49:08;;;;;;;35.50;5.60;;;9.60;99.90;;;;;;5108962;28;20506;-51
2023/12/29 09:51:34;;;;;;;65.07;5.47;;;9.60;99.90;;;;;;5107690;28;20032;-50
2023/12/29 09:54:00;;;;;;;56.30;6.07;;;9.60;99.90;;;;;;5101455;28;20115;-51
2023/12/29 09:56:26;;;;;;;46.90;6.35;;;9.60;99.90;;;;;;5092096;28;20028;-50
2023/12/29 09:58:51;;;;;;;57.75;6.60;;;9.60;99.90;;;;;;5104638;28;20051;-51
2023/12/29 10:01:21;;;;;;;37.92;6.35;;;9.70;99.90;;;;;;5088505;28;20028;-51
2023/12/29 10:03:48;;;;;;;47.30;6.32;;;9.70;99.90;;;;;;5108967;28;20073;-51
2023/12/29 10:06:16;;;;;;;43.55;6.30;;;9.70;99.90;;;;;;5083105;28;20459;-51
2023/12/29 10:08:45;;;;;;;66.40;8.07;;;9.70;99.90;;;;;;5102890;28;20035;-51
2023/12/29 10:11:10;;;;;;;40.55;5.57;;;9.80;99.90;;;;;;5119042;28;20083;-51
2023/12/29 10:13:36;;;;;;;50.40;6.43;;;9.80;99.90;;;;;;5095618;28;20039;-51
2023/12/29 10:16:23;;;;;;;44.10;6.85;;;9.80;99.90;;;;;;5104108;28;20028;-51
2023/12/29 10:19:15;;;;;;;81.22;9.98;;;9.80;99.90;;;;;;5118774;27;20126;-51
2023/12/29 10:21:43;;;;;;;75.22;7.72;;;9.80;99.90;;;;;;5106369;28;20040;-51
2023/12/29 10:24:19;;;;;;;58.67;8.38;;;9.90;99.90;;;;;;5100356;28;20038;-49
2023/12/29 10:26:45;;;;;;;59.30;8.48;;;9.90;99.90;;;;;;5089224;28;20027;-49
2023/12/29 10:29:12;;;;;;;68.05;9.38;;;9.90;99.90;;;;;;5110662;28;20027;-49
2023/12/29 10:31:38;;;;;;;84.65;9.45;;;9.90;99.90;;;;;;5114082;28;20104;-49
2023/12/29 10:34:28;;;;;;;57.95;7.75;;;10.00;99.90;;;;;;5104270;28;20467;-49
2023/12/29 10:36:54;;;;;;;84.13;7.78;;;10.00;99.90;;;;;;5116008;28;20403;-49
2023/12/29 10:39:19;;;;;;;85.40;8.93;;;10.00;99.90;;;;;;5103171;28;20053;-49
2023/12/29 10:41:45;;;;;;;103.55;9.55;;;10.00;99.90;;;;;;5121388;27;20020;-49
2023/12/29 10:44:11;;;;;;;79.93;9.02;;;10.10;99.90;;;;;;5121384;28;20051;-49
2023/12/29 10:46:36;;;;;;;87.72;10.25;;;10.10;99.90;;;;;;5110514;28;20440;-49
2023/12/29 10:49:12;;;;;;;75.03;8.90;;;10.10;99.90;;;;;;5104866;28;20028;-49
2023/12/29 10:51:38;;;;;;;109.82;11.05;;;10.20;99.90;;;;;;5118161;28;20028;-49
2023/12/29 10:54:04;;;;;;;70.78;10.40;;;10.20;99.90;;;;;;5115150;28;20035;-49
2023/12/29 10:56:32;;;;;;;119.95;11.25;;;10.20;99.90;;;;;;5106917;28;20047;-48
2023/12/29 10:59:05;;;;;;;92.63;11.00;;;10.20;99.90;;;;;;5108207;28;20051;-49
2023/12/29 11:01:34;;;;;;;90.20;9.30;;;10.20;99.90;;;;;;5101168;28;20043;-49
2023/12/29 11:04:04;;;;;;;95.05;10.30;;;10.20;99.90;;;;;;5120848;28;20107;-49
2023/12/29 11:06:39;;;;;;;83.80;9.25;;;10.30;99.90;;;;;;5104495;28;20021;-49
2023/12/29 11:09:05;;;;;;;76.72;9.15;;;10.30;99.90;;;;;;5089632;28;20032;-49
2023/12/29 11:11:33;;;;;;;82.22;8.55;;;10.40;99.90;;;;;;5120229;28;20028;-49
2023/12/29 11:13:59;;;;;;;81.78;9.88;;;10.40;99.90;;;;;;5077590;28;20040;-48
2023/12/29 11:16:24;;;;;;;70.03;10.10;;;10.40;99.90;;;;;;5102143;28;20046;-49
2023/12/29 11:18:51;;;;;;;73.85;11.45;;;10.40;99.90;;;;;;5108394;28;20095;-49
2023/12/29 11:21:17;;;;;;;82.55;11.30;;;10.40;99.90;;;;;;5104971;28;20044;-49
2023/12/29 11:23:43;;;;;;;97.22;12.95;;;10.50;99.90;;;;;;5111397;28;20035;-49
2023/12/29 11:26:08;;;;;;;107.38;12.40;;;10.50;99.90;;;;;;5114381;28;20036;-49
2023/12/29 11:28:34;;;;;;;110.22;11.68;;;10.60;99.90;;;;;;5110501;28;20031;-49
2023/12/29 11:31:00;;;;;;;100.30;13.40;;;10.60;99.90;;;;;;5086957;28;20509;-49
2023/12/29 11:33:59;;;;;;;141.73;12.23;;;10.60;99.90;;;;;;5102361;28;20028;-49
2023/12/29 11:36:33;;;;;;;287.60;24.88;;;10.60;99.90;;;;;;5041453;28;20043;-49
2023/12/29 11:39:24;;;;;;;151.48;16.63;;;10.70;99.90;;;;;;5108413;28;20475;-49
2023/12/29 11:42:02;;;;;;;98.65;12.63;;;10.70;99.90;;;;;;5111141;28;20071;-49
2023/12/29 11:44:27;;;;;;;114.82;13.00;;;10.80;99.90;;;;;;5104356;28;20027;-49
2023/12/29 11:46:53;;;;;;;111.50;12.52;;;10.80;99.90;;;;;;5087083;28;20030;-51
2023/12/29 11:49:19;;;;;;;158.80;15.20;;;10.80;99.90;;;;;;5090621;28;20024;-51
2023/12/29 11:51:48;;;;;;;120.30;14.65;;;10.80;99.90;;;;;;5108636;28;20024;-50
2023/12/29 11:54:26;;;;;;;120.32;13.68;;;10.90;99.90;;;;;;5082113;28;20083;-50
2023/12/29 11:56:53;;;;;;;107.80;14.25;;;10.90;99.90;;;;;;5119987;28;20028;-49
2023/12/29 11:59:21;;;;;;;171.25;18.50;;;10.90;99.90;;;;;;5108282;28;20099;-49
2023/12/29 12:01:56;;;;;;;144.00;16.25;;;10.90;99.90;;;;;;5108037;28;20027;-49
2023/12/29 12:04:39;;;;;;;;;;;10.90;99.90;;;;;;5114911;28;20036;-50
2023/12/29 12:07:06;;;;;;;158.02;14.88;;;10.90;99.90;;;;;;5128931;28;19908;-49
2023/12/29 12:09:34;;;;;;;114.13;13.90;;;11.00;99.90;;;;;;5090644;28;20115;-49
2023/12/29 12:12:03;;;;;;;104.68;12.98;;;11.00;99.90;;;;;;5107745;28;20035;-49
2023/12/29 12:14:50;;;;;;;105.03;11.60;;;11.00;99.90;;;;;;5101034;28;20035;-49
2023/12/29 12:17:29;;;;;;;105.45;13.10;;;11.00;99.90;;;;;;5128925;28;20036;-49
2023/12/29 12:19:58;;;;;;;56.38;9.93;;;11.00;99.90;;;;;;5110727;28;20051;-49
2023/12/29 12:22:25;;;;;;;80.60;9.25;;;11.10;99.90;;;;;;5127201;28;20030;-50
2023/12/29 12:25:00;;;;;;;79.45;9.60;;;11.10;99.90;;;;;;5106072;28;20048;-49
2023/12/29 12:27:26;;;;;;;124.22;13.75;;;11.10;99.90;;;;;;5109729;28;20054;-49
2023/12/29 12:29:57;;;;;;;103.18;12.90;;;11.10;99.90;;;;;;5107377;28;20067;-49
2023/12/29 12:32:23;;;;;;;158.32;14.48;;;11.10;99.90;;;;;;5076714;28;20020;-49
2023/12/29 12:34:49;;;;;;;102.93;12.45;;;11.20;99.90;;;;;;5105013;28;20118;-49
2023/12/29 12:37:25;;;;;;;103.43;12.20;;;11.20;99.90;;;;;;5110094;28;20032;-49
2023/12/29 12:39:51;;;;;;;103.15;11.85;;;11.20;99.90;;;;;;5104145;28;20095;-49
2023/12/29 12:42:19;;;;;;;102.18;11.98;;;11.20;99.90;;;;;;5091595;28;20032;-49
2023/12/29 12:44:55;;;;;;;92.47;11.98;;;11.20;99.90;;;;;;5120066;28;20455;-49
2023/12/29 12:47:32;;;;;;;84.78;11.00;;;11.30;99.90;;;;;;5097447;28;20081;-49